createdAt,value
2019-04-07T00:04:50.940Z,19.55
2019-04-07T00:07:22.899Z,28.75
2019-04-07T00:09:54.254Z,31.85
2019-04-07T00:12:26.461Z,32.40
2019-04-07T00:14:58.201Z,31.60
2019-04-07T00:17:31.130Z,30.88
2019-04-07T00:20:04.087Z,34.60
2019-04-07T00:22:36.836Z,34.30
2019-04-07T00:25:08.768Z,33.25
2019-04-07T00:27:40.432Z,22.87
2019-04-07T00:30:12.110Z,22.98
2019-04-07T00:32:44.261Z,25.30
2019-04-07T00:35:26.564Z,27.20
2019-04-07T00:37:50.752Z,30.60
2019-04-07T00:40:22.591Z,23.50
2019-04-07T00:42:58.205Z,31.20
2019-04-07T00:45:30.650Z,22.32
2019-04-07T00:48:01.917Z,28.73
2019-04-07T00:50:34.708Z,26.00
2019-04-07T00:53:12.364Z,26.07
2019-04-07T00:55:47.562Z,22.90
2019-04-07T00:58:19.349Z,24.75
2019-04-07T01:00:50.910Z,32.80
2019-04-07T01:03:22.652Z,23.12
2019-04-07T01:05:54.474Z,25.65
2019-04-07T01:08:28.158Z,25.80
2019-04-07T01:10:59.914Z,27.32
2019-04-07T01:13:31.047Z,32.88
2019-04-07T01:16:03.894Z,31.27
2019-04-07T01:18:37.057Z,35.83
2019-04-07T01:21:11.512Z,31.80
2019-04-07T01:23:44.581Z,34.50
2019-04-07T01:26:15.457Z,32.63
2019-04-07T01:28:48.239Z,33.58
2019-04-07T01:31:19.796Z,34.20
2019-04-07T01:33:55.336Z,36.10
2019-04-07T01:36:30.151Z,35.98
2019-04-07T01:39:01.461Z,35.88
2019-04-07T01:44:06.541Z,33.23
2019-04-07T01:46:40.453Z,30.08
2019-04-07T01:49:13.481Z,25.80
2019-04-07T01:51:47.604Z,24.00
2019-04-07T01:54:21.812Z,22.75
2019-04-07T01:56:54.193Z,21.33
2019-04-07T02:01:55.189Z,20.65
2019-04-07T02:04:32.727Z,19.67
2019-04-07T02:07:05.082Z,18.40
2019-04-07T02:09:38.041Z,18.50
2019-04-07T02:12:11.539Z,17.77
2019-04-07T02:14:45.518Z,17.57
2019-04-07T02:17:17.850Z,16.65
2019-04-07T02:19:49.975Z,16.35
2019-04-07T02:22:25.584Z,17.57
2019-04-07T02:24:59.351Z,15.88
2019-04-07T02:27:33.424Z,17.10
2019-04-07T02:30:06.577Z,20.50
2019-04-07T02:32:48.393Z,17.27
2019-04-07T02:35:20.902Z,15.10
2019-04-07T02:37:54.700Z,16.60
2019-04-07T02:40:26.963Z,15.90
2019-04-07T02:42:59.244Z,16.73
2019-04-07T02:45:32.948Z,15.18
2019-04-07T02:48:07.068Z,15.48
2019-04-07T02:50:39.966Z,14.83
2019-04-07T02:53:19.603Z,14.70
2019-04-07T02:55:51.440Z,13.78
2019-04-07T02:58:22.764Z,14.45
2019-04-07T03:03:34.561Z,16.55
2019-04-07T03:06:26.227Z,16.87
2019-04-07T03:08:49.215Z,16.00
2019-04-07T03:11:24.703Z,16.95
2019-04-07T03:13:57.353Z,17.60
2019-04-07T03:16:31.157Z,17.82
2019-04-07T03:19:04.485Z,16.45
2019-04-07T03:21:38.245Z,16.95
2019-04-07T03:24:14.086Z,16.85
2019-04-07T03:26:47.878Z,17.05
2019-04-07T03:29:25.502Z,16.32
2019-04-07T03:31:59.841Z,15.30
2019-04-07T03:34:33.949Z,16.17
2019-04-07T03:37:21.507Z,14.93
2019-04-07T03:39:43.773Z,18.67
2019-04-07T03:42:19.793Z,16.80
2019-04-07T03:44:53.272Z,16.48
2019-04-07T03:47:25.986Z,17.20
2019-04-07T03:50:00.205Z,16.52
2019-04-07T03:52:32.862Z,16.67
2019-04-07T03:55:06.640Z,16.62
2019-04-07T03:57:47.720Z,17.10
2019-04-07T04:00:29.533Z,16.73
2019-04-07T04:03:02.618Z,16.05
2019-04-07T04:05:45.314Z,16.40
2019-04-07T04:08:19.522Z,16.65
2019-04-07T04:10:51.774Z,17.30
2019-04-07T04:13:24.282Z,16.50
2019-04-07T04:15:58.851Z,15.98
2019-04-07T04:18:30.987Z,16.15
2019-04-07T04:21:02.208Z,16.95
2019-04-07T04:23:33.665Z,16.65
2019-04-07T04:26:05.079Z,16.55
2019-04-07T04:28:43.001Z,16.57
2019-04-07T04:31:19.579Z,16.93
2019-04-07T04:33:58.009Z,16.37
2019-04-07T04:36:31.619Z,15.68
2019-04-07T04:39:03.001Z,16.57
2019-04-07T04:41:40.804Z,16.65
2019-04-07T04:44:12.323Z,16.07
2019-04-07T04:46:48.736Z,15.63
2019-04-07T04:49:20.870Z,15.13
2019-04-07T04:52:00.692Z,15.15
2019-04-07T04:54:36.919Z,17.07
2019-04-07T04:57:14.600Z,18.85
2019-04-07T04:59:47.091Z,16.48
2019-04-07T05:02:17.821Z,17.30
2019-04-07T05:04:48.332Z,15.20
2019-04-07T05:07:23.060Z,16.17
2019-04-07T05:09:56.406Z,17.07
2019-04-07T05:12:27.686Z,16.15
2019-04-07T05:14:58.919Z,16.45
2019-04-07T05:20:01.177Z,15.68
2019-04-07T05:22:32.096Z,16.73
2019-04-07T05:25:05.108Z,16.90
2019-04-07T05:27:43.583Z,16.50
2019-04-07T05:30:15.600Z,16.40
2019-04-07T06:36:35.187Z,16.02
2019-04-07T06:39:09.572Z,16.02
2019-04-07T06:41:42.398Z,15.58
2019-04-07T06:44:19.381Z,15.00
2019-04-07T06:46:48.016Z,14.13
2019-04-07T06:49:20.691Z,14.83
2019-04-07T06:51:53.204Z,15.23
2019-04-07T06:54:34.146Z,15.83
2019-04-07T06:57:07.364Z,13.05
2019-04-07T06:59:45.636Z,13.83
2019-04-07T07:02:30.219Z,14.53
2019-04-07T07:05:04.028Z,14.73
2019-04-07T07:07:36.568Z,14.20
2019-04-07T07:10:11.632Z,13.90
2019-04-07T07:12:47.659Z,14.93
2019-04-07T07:15:23.367Z,15.10
2019-04-07T07:17:59.012Z,11.80
2019-04-07T07:20:30.451Z,13.18
2019-04-07T07:23:03.895Z,11.22
2019-04-07T07:25:34.889Z,10.28
2019-04-07T07:28:07.573Z,9.70
2019-04-07T07:30:37.710Z,10.30
2019-04-07T07:33:11.030Z,10.03
2019-04-07T07:35:46.924Z,10.13
2019-04-07T07:38:15.697Z,10.08
2019-04-07T07:43:17.639Z,9.17
2019-04-07T07:45:50.183Z,8.70
2019-04-07T07:48:26.203Z,8.80
2019-04-07T07:50:59.085Z,7.45
2019-04-07T07:53:33.272Z,6.42
2019-04-07T07:56:08.341Z,5.97
2019-04-07T07:58:40.668Z,5.65
2019-04-07T08:01:13.857Z,6.22
2019-04-07T08:03:45.885Z,6.40
2019-04-07T08:06:19.862Z,5.80
2019-04-07T08:08:51.543Z,6.10
2019-04-07T08:11:23.998Z,5.90
2019-04-07T08:14:01.253Z,6.25
2019-04-07T08:16:32.520Z,6.75
2019-04-07T08:19:04.148Z,6.40
2019-04-07T08:21:36.931Z,8.08
2019-04-07T08:24:09.010Z,8.30
2019-04-07T08:26:40.905Z,8.55
2019-04-07T08:29:13.832Z,7.78
2019-04-07T08:31:55.400Z,8.50
2019-04-07T08:34:26.535Z,8.08
2019-04-07T08:36:58.449Z,8.25
2019-04-07T08:39:33.563Z,7.75
2019-04-07T08:42:07.695Z,8.48
2019-04-07T08:44:35.497Z,7.60
2019-04-07T08:47:06.679Z,7.35
2019-04-07T08:49:38.081Z,7.25
2019-04-07T08:52:11.244Z,6.10
2019-04-07T08:54:42.163Z,6.25
2019-04-07T08:57:16.319Z,6.30
2019-04-07T08:59:48.375Z,7.03
2019-04-07T09:02:20.056Z,7.47
2019-04-07T09:04:52.448Z,8.93
2019-04-07T09:07:24.665Z,10.23
2019-04-07T09:09:57.803Z,14.05
2019-04-07T09:12:32.484Z,16.02
2019-04-07T09:15:05.235Z,17.77
2019-04-07T09:17:43.720Z,16.62
2019-04-07T09:20:12.168Z,16.25
2019-04-07T09:22:44.373Z,14.98
2019-04-07T09:25:18.230Z,14.47
2019-04-07T09:27:51.159Z,12.00
2019-04-07T09:30:22.521Z,9.95
2019-04-07T09:32:57.848Z,10.75
2019-04-07T09:35:32.074Z,10.43
2019-04-07T09:38:04.469Z,11.15
2019-04-07T09:40:39.430Z,12.88
2019-04-07T09:43:17.566Z,16.55
2019-04-07T09:45:49.462Z,16.75
2019-04-07T09:48:23.283Z,16.90
2019-04-07T09:51:05.065Z,17.57
2019-04-07T09:53:33.792Z,21.02
2019-04-07T09:56:08.599Z,21.45
2019-04-07T09:58:42.753Z,27.90
2019-04-07T10:01:17.592Z,28.85
2019-04-07T10:03:47.703Z,28.00
2019-04-07T10:06:20.233Z,29.87
2019-04-07T10:08:51.271Z,28.55
2019-04-07T10:11:23.546Z,31.40
2019-04-07T10:13:54.328Z,26.02
2019-04-07T10:16:31.280Z,24.90
2019-04-07T10:19:04.086Z,22.95
2019-04-07T10:21:35.064Z,22.07
2019-04-07T10:24:08.204Z,18.10
2019-04-07T10:26:40.308Z,15.53
2019-04-07T10:29:13.268Z,14.65
2019-04-07T10:31:47.552Z,13.08
2019-04-07T10:34:20.341Z,13.65
2019-04-07T10:36:53.251Z,13.25
2019-04-07T10:39:25.752Z,14.33
2019-04-07T10:41:58.898Z,13.45
2019-04-07T10:44:31.508Z,15.45
2019-04-07T10:47:03.880Z,15.40
2019-04-07T10:49:37.288Z,16.23
2019-04-07T10:52:11.225Z,15.78
2019-04-07T10:54:44.796Z,15.53
2019-04-07T10:57:15.614Z,15.75
2019-04-07T10:59:51.463Z,15.58
2019-04-07T11:02:24.890Z,15.65
2019-04-07T11:04:58.004Z,15.15
2019-04-07T11:07:34.283Z,16.07
2019-04-07T11:10:07.944Z,16.05
2019-04-07T11:12:42.377Z,16.97
2019-04-07T11:15:13.883Z,15.58
2019-04-07T11:17:47.237Z,17.20
2019-04-07T11:20:21.438Z,18.60
2019-04-07T11:22:56.296Z,16.23
2019-04-07T11:25:29.847Z,14.68
2019-04-07T11:28:05.965Z,15.03
2019-04-07T11:30:39.931Z,13.20
2019-04-07T11:33:12.904Z,11.73
2019-04-07T11:35:47.543Z,12.30
2019-04-07T11:38:23.197Z,10.98
2019-04-07T11:40:57.820Z,10.82
2019-04-07T11:43:30.610Z,10.40
2019-04-07T11:46:04.632Z,10.72
2019-04-07T11:48:36.762Z,10.50
2019-04-07T11:51:09.639Z,9.38
2019-04-07T11:53:42.540Z,8.93
2019-04-07T11:56:13.603Z,9.78
2019-04-07T11:58:45.882Z,9.40
2019-04-07T12:03:28.816Z,19.48
2019-04-07T12:06:01.372Z,20.85
2019-04-07T12:08:36.277Z,21.87
2019-04-07T12:11:07.628Z,24.75
2019-04-07T12:13:42.751Z,29.50
2019-04-07T12:16:14.589Z,32.55
2019-04-07T12:18:50.151Z,31.45
2019-04-07T12:21:23.149Z,32.13
2019-04-07T12:23:58.313Z,31.10
2019-04-07T12:26:34.610Z,31.37
2019-04-07T12:29:05.882Z,30.30
2019-04-07T12:31:41.154Z,28.92
2019-04-07T12:34:15.384Z,28.55
2019-04-07T12:36:48.404Z,29.70
2019-04-07T12:39:22.325Z,31.05
2019-04-07T12:41:58.050Z,29.98
2019-04-07T12:44:30.101Z,31.05
2019-04-07T12:47:04.862Z,30.50
2019-04-07T12:49:42.122Z,32.08
2019-04-07T12:53:40.134Z,31.65
2019-04-07T12:56:11.395Z,37.33
2019-04-07T12:58:47.473Z,35.68
2019-04-07T13:01:21.380Z,31.73
2019-04-07T13:03:55.859Z,34.38
2019-04-07T13:06:28.758Z,39.25
2019-04-07T13:09:08.145Z,40.00
2019-04-07T13:11:55.813Z,41.30
2019-04-07T13:14:26.974Z,41.23
2019-04-07T13:17:05.392Z,39.67
2019-04-07T13:19:44.870Z,36.75
2019-04-07T13:22:16.281Z,32.03
2019-04-07T13:24:50.988Z,33.30
2019-04-07T13:27:24.701Z,26.45
2019-04-07T13:28:58.695Z,24.75
2019-04-07T13:30:08.455Z,23.00
2019-04-07T13:31:41.773Z,21.73
2019-04-07T13:32:51.231Z,19.73
2019-04-07T13:35:23.352Z,15.68
2019-04-07T13:37:54.414Z,18.30
2019-04-07T13:40:30.663Z,18.45
2019-04-07T13:43:04.397Z,14.93
2019-04-07T13:45:36.994Z,14.53
2019-04-07T13:48:09.136Z,15.03
2019-04-07T13:50:41.793Z,14.18
2019-04-07T13:53:14.552Z,15.63
2019-04-07T13:55:46.916Z,14.95
2019-04-07T13:58:22.593Z,16.07
2019-04-07T14:00:55.834Z,15.53
2019-04-07T14:03:29.145Z,14.98
2019-04-07T14:06:02.314Z,18.30
2019-04-07T14:08:36.188Z,17.30
2019-04-07T14:11:10.919Z,17.17
2019-04-07T14:13:44.701Z,18.60
2019-04-07T14:16:19.613Z,19.80
2019-04-07T14:18:54.338Z,23.95
2019-04-07T14:21:29.519Z,24.75
2019-04-07T14:24:14.012Z,26.27
2019-04-07T14:27:10.255Z,26.17
2019-04-07T14:29:45.970Z,30.05
2019-04-07T14:32:31.315Z,29.12
2019-04-07T14:35:04.381Z,25.80
2019-04-07T14:37:46.219Z,25.88
2019-04-07T14:40:18.966Z,23.73
2019-04-07T14:42:53.446Z,27.52
2019-04-07T14:45:27.255Z,29.77
2019-04-07T14:49:27.855Z,33.13
2019-04-07T14:51:59.586Z,32.03
2019-04-07T14:54:34.690Z,33.13
2019-04-07T14:57:09.130Z,33.00
2019-04-07T14:59:49.665Z,30.60
2019-04-07T15:02:22.768Z,35.60
2019-04-07T15:04:56.902Z,27.42
2019-04-07T15:07:30.893Z,28.65
2019-04-07T15:10:03.277Z,24.20
2019-04-07T15:12:36.027Z,25.90
2019-04-07T15:15:11.209Z,30.12
2019-04-07T15:17:43.658Z,35.38
2019-04-07T15:20:15.735Z,39.90
2019-04-07T15:22:49.555Z,36.30
2019-04-07T15:25:23.167Z,41.85
2019-04-07T15:27:58.954Z,36.83
2019-04-07T15:30:38.402Z,26.23
2019-04-07T15:33:15.800Z,24.80
2019-04-07T15:35:59.234Z,20.32
2019-04-07T15:38:35.613Z,16.73
2019-04-07T15:41:15.340Z,17.65
2019-04-07T15:43:41.190Z,12.85
2019-04-07T15:46:22.477Z,29.48
2019-04-07T15:49:08.945Z,22.10
2019-04-07T15:51:41.627Z,17.00
2019-04-07T15:54:22.753Z,15.60
2019-04-07T15:56:53.784Z,22.95
2019-04-07T15:59:24.953Z,27.67
2019-04-07T16:01:57.130Z,23.73
2019-04-07T16:04:29.840Z,26.05
2019-04-07T16:07:02.358Z,26.68
2019-04-07T16:09:41.820Z,23.47
2019-04-07T16:12:14.516Z,22.30
2019-04-07T16:14:55.944Z,21.25
2019-04-07T16:17:27.701Z,18.85
2019-04-07T16:20:18.783Z,18.77
2019-04-07T16:22:51.883Z,19.65
2019-04-07T16:25:30.227Z,15.75
2019-04-07T16:28:02.353Z,16.97
2019-04-07T16:30:34.195Z,16.70
2019-04-07T16:33:05.698Z,16.02
2019-04-07T16:35:53.504Z,19.55
2019-04-07T16:38:24.230Z,16.15
2019-04-07T16:41:08.432Z,15.78
2019-04-07T16:43:40.909Z,16.85
2019-04-07T16:46:20.243Z,17.07
2019-04-07T16:48:47.659Z,17.45
2019-04-07T16:51:19.370Z,17.12
2019-04-07T16:54:00.317Z,19.42
2019-04-07T16:56:31.122Z,19.80
2019-04-07T16:59:03.041Z,18.48
2019-04-07T17:04:06.374Z,18.07
2019-04-07T17:06:59.290Z,15.32
2019-04-07T17:09:34.415Z,16.85
2019-04-07T17:12:09.349Z,16.12
2019-04-07T17:14:38.131Z,14.33
2019-04-07T17:17:10.016Z,17.80
2019-04-07T17:19:43.614Z,16.32
2019-04-07T17:22:16.917Z,18.23
2019-04-07T17:24:52.019Z,17.23
2019-04-07T17:27:24.055Z,18.30
2019-04-07T17:29:56.623Z,12.68
2019-04-07T17:32:33.145Z,18.35
2019-04-07T17:35:02.779Z,18.60
2019-04-07T17:37:36.304Z,17.82
2019-04-07T17:40:13.243Z,18.87
2019-04-07T17:42:45.000Z,20.20
2019-04-07T17:45:20.371Z,22.52
2019-04-07T17:47:52.649Z,21.60
2019-04-07T17:50:31.513Z,28.50
2019-04-07T17:53:16.045Z,29.25
2019-04-07T17:55:46.668Z,24.50
2019-04-07T17:58:20.124Z,24.45
2019-04-07T18:00:54.414Z,24.30
2019-04-07T18:03:39.071Z,25.12
2019-04-07T18:06:11.208Z,23.12
2019-04-07T18:08:45.643Z,22.60
2019-04-07T18:11:17.718Z,25.52
2019-04-07T18:13:56.576Z,24.87
2019-04-07T18:16:32.662Z,28.23
2019-04-07T18:19:11.965Z,28.47
2019-04-07T18:21:51.550Z,27.58
2019-04-07T18:24:21.472Z,31.10
2019-04-07T18:26:55.392Z,28.10
2019-04-07T18:29:29.946Z,28.47
2019-04-07T18:32:02.000Z,31.07
2019-04-07T18:34:39.746Z,29.98
2019-04-07T18:37:12.929Z,28.32
2019-04-07T18:39:52.356Z,26.57
2019-04-07T18:42:20.832Z,31.27
2019-04-07T18:44:54.229Z,28.80
2019-04-07T18:47:27.356Z,30.32
2019-04-07T18:50:05.502Z,29.80
2019-04-07T18:52:35.763Z,28.67
2019-04-07T18:55:13.857Z,29.95
2019-04-07T18:57:47.523Z,29.32
2019-04-07T19:00:21.075Z,29.52
2019-04-07T19:02:53.701Z,28.07
2019-04-07T19:05:36.568Z,29.67
2019-04-07T19:08:10.015Z,28.12
2019-04-07T19:10:45.109Z,29.63
2019-04-07T19:13:26.948Z,28.10
2019-04-07T19:15:56.936Z,31.07
2019-04-07T19:18:29.228Z,29.50
2019-04-07T19:21:11.824Z,30.55
2019-04-07T19:23:43.603Z,30.17
2019-04-07T19:26:23.376Z,32.65
2019-04-07T19:28:56.484Z,31.62
2019-04-07T19:31:30.060Z,32.05
2019-04-07T19:34:04.782Z,32.28
2019-04-07T19:36:38.006Z,30.97
2019-04-07T19:39:12.915Z,31.45
2019-04-07T19:41:45.383Z,32.70
2019-04-07T19:44:18.793Z,30.50
2019-04-07T19:47:00.014Z,32.42
2019-04-07T19:49:32.540Z,32.15
2019-04-07T19:52:07.073Z,32.25
2019-04-07T19:54:39.938Z,33.35
2019-04-07T19:57:25.845Z,28.83
2019-04-07T19:59:58.729Z,35.75
2019-04-07T20:02:35.984Z,37.75
2019-04-07T20:05:08.000Z,47.60
2019-04-07T20:07:42.104Z,47.62
2019-04-07T20:10:19.889Z,48.30
2019-04-07T20:15:42.960Z,51.35
2019-04-07T20:18:15.297Z,43.85
2019-04-07T20:20:47.099Z,43.55
2019-04-07T20:23:20.203Z,42.70
2019-04-07T20:25:59.936Z,42.85
2019-04-07T20:28:32.911Z,43.00
2019-04-07T20:31:05.852Z,41.30
2019-04-07T20:33:38.092Z,39.67
2019-04-07T20:36:17.708Z,41.28
2019-04-07T20:38:44.974Z,42.33
2019-04-07T20:41:17.458Z,41.60
2019-04-07T20:43:55.887Z,40.80
2019-04-07T20:46:28.329Z,40.40
2019-04-07T20:49:02.821Z,43.78
2019-04-07T20:51:35.422Z,41.73
2019-04-07T20:54:09.737Z,44.20
2019-04-07T20:56:47.206Z,38.55
2019-04-07T20:59:20.446Z,33.60
2019-04-07T21:02:01.616Z,41.13
2019-04-07T21:04:34.224Z,43.90
2019-04-07T21:07:08.033Z,45.70
2019-04-07T21:09:40.611Z,40.83
2019-04-07T21:12:14.871Z,39.45
2019-04-07T21:14:47.364Z,42.45
2019-04-07T21:17:19.870Z,43.08
2019-04-07T21:19:52.359Z,40.23
2019-04-07T21:22:31.748Z,39.80
2019-04-07T21:25:11.960Z,37.70
2019-04-07T21:27:49.007Z,40.92
2019-04-07T21:30:22.735Z,38.78
2019-04-07T21:32:55.518Z,39.90
2019-04-07T21:35:29.197Z,37.73
2019-04-07T21:38:02.599Z,35.58
2019-04-07T21:40:39.513Z,36.98
2019-04-07T21:43:11.642Z,38.75
2019-04-07T21:45:49.870Z,38.35
2019-04-07T21:48:18.876Z,41.33
2019-04-07T21:50:51.732Z,37.73
2019-04-07T21:53:32.147Z,40.98
2019-04-07T21:56:14.146Z,37.28
2019-04-07T21:58:45.669Z,37.47
2019-04-07T22:01:18.716Z,40.25
2019-04-07T22:03:52.439Z,35.45
2019-04-07T22:06:26.555Z,38.88
2019-04-07T22:09:00.315Z,38.92
2019-04-07T22:11:32.665Z,39.73
2019-04-07T22:14:06.153Z,38.95
2019-04-07T22:16:37.733Z,37.65
2019-04-07T22:19:15.339Z,34.92
2019-04-07T22:21:53.230Z,35.80
2019-04-07T22:24:22.688Z,38.25
2019-04-07T22:26:55.112Z,37.63
2019-04-07T22:29:26.643Z,38.80
2019-04-07T22:34:32.699Z,35.52
2019-04-07T22:37:04.779Z,37.90
2019-04-07T22:39:36.239Z,38.75
